Share

Allen, KS

5:06 PM CDT on April 23, 2014 (GMT -0500)
East Emporia Kansas (KKSEMPOR3) Elev 1106 ft | 38.39 °N, 96.12 °W | Change Station

Current weather conditions updated 1 minute ago

Clear
Clear
81.3 °F
Feels Like 81 °F
N
14.0
Wind Variable Wind from South
Sunrise 6:37 AM
Sunset 8:09 PM
Moon Waning Crescent

Tomorrow is forecast to be Much Cooler than today. Morning thunderstorms.

Pressure 29.67 in
Visibility 9.0 miles
Clouds Clear
Heat Index 81 °F
Dew Point 53 °F
Humidity 38%
Rainfall 0.00 in
Snow Depth Not available.
UV 5 out of 16
Pollen 11.10 out of 12
Air Quality Not available.
Flu Activity No Activity
METAR KEMP 232153Z AUTO 16021G28KT 9SM CLR 28/08 A2969 RMK AO2 PK WND 17036/2114 SLP047 T02780083

More Conditions Fewer Conditions

Pressure 29.67 in
Visibility 9.0 miles
Clouds Clear
Heat Index 81 °F
Dew Point 53 °F
Humidity 38%
Rainfall 0.00 in
Snow Depth Not available.
UV 5 out of 16
Pollen 11.10 out of 12
Air Quality Not available.
Flu Activity No Activity
METAR KEMP 232153Z AUTO 16021G28KT 9SM CLR 28/08 A2969 RMK AO2 PK WND 17036/2114 SLP047 T02780083

More Conditions Fewer Conditions

10-Day Weather Forecast

Almanac

Astronomy

Apr. 23, 2014 Rise Set
Actual Time 6:37 AM CDT 8:09 PM CDT
Civil Twilight 6:09 AM CDT 8:37 PM CDT
Nautical Twilight 5:36 AM CDT 9:11 PM CDT
Astronomical Twilight 5:00 AM CDT 9:47 PM CDT
Moon 3:06 AM CDT 2:23 PM CDT
Length of Visible Light 14h 27m
Length of Day
13h 31m
Tomorrow will be 2m 17s longer.
Waning Crescent, 32% of the Moon is Illuminated
Today
Waning Crescent
Apr 29
New
May 6
First Quarter
May 14
Full
May 21
Last Quarter

Today's Extremes

State Highs State Lows

Community

  • Stunning Sunrise
    Stunning Sunrise
  • spring flowers
    spring flowers
  • Earth Day Spectrum Ove' Blue
    Earth Day Spectrum Ove' Blue
  • BARN B&W
    BARN B&W
  • April Sunset
    April Sunset

WunderPhotos

Upload Photos

1,704,424 photos uploaded!

WunderBlogs® & News

Nearby

Snow Depth

Station Depth Elevation
No new snow has been reported.

Coastal Water Temperatures

Place Temperature
No Stations Reporting

Earthquake Activity

City Distance Mag. Time & Date
Medford, Oklahoma 162 miles 2.9 3:07 AM CDT
2014-04-19
Minimum magnitude displayed is 2.5.

Nearby Weather Stations

Station Location Temp. Heat Index Dew Point Humidity Wind Precip. Elev Updated Type
East Emporia Kansas, Emporia, KS 81.3 °F 81 °F 53 °F 38% South  at  14.0 mph - / hr 1106 ft 5:05 PM CDT Normal
RAWS TALLGRASS PRAIRIE KS, Strong City, KS 84 °F 81 °F 42 °F 23% South  at  24 mph 0.00 in / hr 1230 ft 4:30 PM CDT MADIS
Adam's Place, OSAGE CITY, KS 82.4 °F 80 °F 32 °F 16% SW  at  11.0 mph 0.00 in / hr 1086 ft 5:06 PM CDT Rapid Fire
MesoWest DWIGHT , Dwight, KS 80 °F 78 °F - - North  at  - 0.00 in / hr 1443 ft 3:35 PM CDT MADIS

Show More Stations Show Fewer Stations

What do you think?

We're not finished. Please let us know what you like, what you don't like, and what you are still missing.